createdAt,value
2023-03-22T00:00:24.767Z,71.45
2023-03-22T00:01:30.942Z,70.88
2023-03-22T00:02:56.124Z,71.34
2023-03-22T00:04:17.739Z,71.47
2023-03-22T00:05:40.906Z,71.40
2023-03-22T00:07:03.402Z,71.22
2023-03-22T00:08:26.017Z,71.02
2023-03-22T00:09:48.567Z,71.26
2023-03-22T00:11:13.061Z,71.09
2023-03-22T00:12:34.580Z,71.37
2023-03-22T00:13:58.671Z,71.62
2023-03-22T00:15:20.275Z,71.54
2023-03-22T00:16:42.738Z,71.44
2023-03-22T00:18:06.946Z,71.38
2023-03-22T00:19:30.042Z,71.74
2023-03-22T00:20:53.148Z,71.52
2023-03-22T00:22:16.118Z,71.59
2023-03-22T00:23:37.669Z,71.73
2023-03-22T00:25:00.268Z,71.87
2023-03-22T00:26:22.956Z,71.75
2023-03-22T00:27:44.661Z,71.87
2023-03-22T00:29:07.226Z,71.87
2023-03-22T00:30:28.820Z,71.91
2023-03-22T00:31:51.934Z,72.04
2023-03-22T00:33:14.846Z,72.13
2023-03-22T00:34:38.127Z,72.17
2023-03-22T00:36:03.381Z,72.27
2023-03-22T00:37:27.939Z,72.29
2023-03-22T00:38:50.510Z,72.58
2023-03-22T00:40:13.941Z,72.62
2023-03-22T00:41:36.552Z,72.80
2023-03-22T00:42:58.077Z,72.79
2023-03-22T00:44:20.690Z,72.88
2023-03-22T00:45:43.104Z,72.93
2023-03-22T00:47:05.752Z,72.82
2023-03-22T00:48:28.881Z,72.94
2023-03-22T00:49:51.425Z,73.04
2023-03-22T00:51:15.403Z,73.12
2023-03-22T00:52:36.924Z,73.24
2023-03-22T00:53:59.426Z,73.16
2023-03-22T00:55:20.989Z,73.11
2023-03-22T00:56:45.360Z,73.33
2023-03-22T00:58:06.922Z,73.22
2023-03-22T00:59:29.415Z,73.49
2023-03-22T01:00:51.525Z,73.40
2023-03-22T01:02:14.677Z,73.46
2023-03-22T01:03:38.684Z,73.26
2023-03-22T01:05:01.238Z,73.46
2023-03-22T01:06:22.906Z,73.70
2023-03-22T01:07:45.705Z,73.60
2023-03-22T01:09:08.306Z,73.61
2023-03-22T01:10:31.019Z,73.48
2023-03-22T01:11:53.500Z,73.27
2023-03-22T01:13:17.895Z,73.56
2023-03-22T01:14:40.846Z,73.46
2023-03-22T01:16:03.356Z,73.64
2023-03-22T01:17:24.910Z,73.54
2023-03-22T01:18:48.752Z,73.76
2023-03-22T01:20:11.621Z,73.87
2023-03-22T01:21:34.115Z,73.96
2023-03-22T01:22:56.562Z,73.71
2023-03-22T01:24:18.067Z,74.20
2023-03-22T01:25:40.807Z,73.93
2023-03-22T01:27:02.384Z,74.11
2023-03-22T01:28:27.033Z,74.28
2023-03-22T01:29:49.839Z,74.48
2023-03-22T01:31:11.561Z,74.57
2023-03-22T01:32:34.293Z,74.79
2023-03-22T01:33:58.130Z,74.55
2023-03-22T01:35:21.069Z,74.60
2023-03-22T01:36:44.835Z,74.64
2023-03-22T01:38:08.126Z,74.79
2023-03-22T01:39:09.711Z,74.71
2023-03-22T01:40:13.378Z,74.93
2023-03-22T01:41:20.345Z,75.09
2023-03-22T01:42:23.524Z,74.89
2023-03-22T01:43:26.570Z,74.78
2023-03-22T01:44:31.429Z,75.01
2023-03-22T01:45:40.224Z,75.13
2023-03-22T01:46:44.699Z,75.37
2023-03-22T01:47:51.649Z,75.16
2023-03-22T01:48:54.436Z,75.35
2023-03-22T01:49:57.303Z,75.51
2023-03-22T01:51:05.388Z,75.16
2023-03-22T01:52:11.088Z,75.55
2023-03-22T01:53:18.921Z,75.33
2023-03-22T01:54:26.576Z,75.49
2023-03-22T01:55:28.306Z,75.63
2023-03-22T01:56:35.566Z,75.65
2023-03-22T01:57:38.349Z,75.71
2023-03-22T01:58:41.968Z,75.90
2023-03-22T01:59:44.900Z,75.86
2023-03-22T02:00:50.652Z,76.02
2023-03-22T02:01:52.156Z,75.80
2023-03-22T02:02:54.926Z,75.87
2023-03-22T02:04:03.434Z,76.11
2023-03-22T02:05:07.068Z,76.09
2023-03-22T02:06:09.793Z,76.28
2023-03-22T02:07:15.391Z,76.24
2023-03-22T02:08:18.117Z,76.13
2023-03-22T02:09:22.133Z,76.19
2023-03-22T02:10:27.962Z,76.35
2023-03-22T02:11:41.454Z,76.44
2023-03-22T02:12:55.970Z,76.16
2023-03-22T02:14:27.292Z,76.38
2023-03-22T02:15:34.672Z,76.31
2023-03-22T02:16:48.457Z,76.40
2023-03-22T02:18:06.211Z,76.72
2023-03-22T02:19:33.491Z,76.45
2023-03-22T02:20:55.206Z,76.31
2023-03-22T02:22:21.712Z,76.54
2023-03-22T02:23:55.283Z,76.50
2023-03-22T02:25:30.227Z,76.42
2023-03-22T02:27:18.406Z,76.36
2023-03-22T02:28:37.802Z,76.39
2023-03-22T02:29:45.875Z,76.53
2023-03-22T02:31:02.338Z,76.65
2023-03-22T02:32:37.403Z,76.72
2023-03-22T02:34:01.387Z,76.46
2023-03-22T02:35:34.267Z,76.66
2023-03-22T02:37:01.671Z,76.64
2023-03-22T02:38:57.629Z,76.84
2023-03-22T02:40:09.840Z,76.78
2023-03-22T02:41:23.680Z,76.83
2023-03-22T02:42:37.633Z,77.00
2023-03-22T02:43:48.024Z,76.88
2023-03-22T02:44:59.762Z,77.11
2023-03-22T02:46:08.105Z,77.18
2023-03-22T02:47:21.509Z,77.31
2023-03-22T02:48:27.967Z,77.30
2023-03-22T02:49:37.257Z,77.26
2023-03-22T02:50:43.256Z,77.39
2023-03-22T02:51:49.822Z,77.20
2023-03-22T02:52:56.085Z,77.69
2023-03-22T02:54:15.350Z,77.63
2023-03-22T02:55:24.146Z,77.54
2023-03-22T02:56:32.264Z,77.68
2023-03-22T02:57:40.899Z,77.54
2023-03-22T02:58:47.043Z,77.51
2023-03-22T02:59:51.550Z,77.50
2023-03-22T03:00:59.388Z,77.55
2023-03-22T03:02:05.467Z,77.63
2023-03-22T03:03:11.759Z,77.70
2023-03-22T03:04:20.371Z,77.56
2023-03-22T03:05:25.116Z,77.74
2023-03-22T03:06:35.598Z,77.88
2023-03-22T03:07:38.602Z,77.89
2023-03-22T03:08:42.035Z,77.82
2023-03-22T03:09:51.490Z,77.90
2023-03-22T03:10:55.911Z,77.88
2023-03-22T03:11:57.451Z,78.09
2023-03-22T03:13:13.462Z,78.52
2023-03-22T03:14:23.665Z,77.95
2023-03-22T03:15:26.898Z,77.97
2023-03-22T03:16:34.792Z,78.09
2023-03-22T03:17:50.557Z,78.18
2023-03-22T03:19:00.059Z,77.98
2023-03-22T03:20:29.911Z,78.29
2023-03-22T03:21:42.427Z,78.01
2023-03-22T03:22:57.365Z,78.21
2023-03-22T03:24:11.286Z,78.22
2023-03-22T03:25:25.017Z,78.41
2023-03-22T03:26:40.444Z,78.29
2023-03-22T03:27:50.877Z,78.25
2023-03-22T03:28:59.360Z,78.66
2023-03-22T03:30:10.029Z,78.30
2023-03-22T03:31:27.022Z,78.49
2023-03-22T03:32:35.163Z,78.47
2023-03-22T03:33:52.869Z,78.03
2023-03-22T03:34:58.767Z,78.63
2023-03-22T03:36:04.385Z,78.53
2023-03-22T03:37:21.820Z,78.58
2023-03-22T03:38:27.648Z,78.66
2023-03-22T03:39:34.349Z,78.66
2023-03-22T03:40:47.712Z,78.75
2023-03-22T03:41:56.055Z,78.73
2023-03-22T03:43:02.500Z,78.74
2023-03-22T03:44:06.050Z,78.83
2023-03-22T03:45:09.837Z,78.99
2023-03-22T03:46:13.366Z,79.12
2023-03-22T03:47:16.287Z,79.08
2023-03-22T03:48:22.169Z,78.83
2023-03-22T03:49:24.333Z,79.09
2023-03-22T03:50:27.981Z,79.05
2023-03-22T03:51:29.577Z,79.02
2023-03-22T03:52:32.080Z,79.22
2023-03-22T03:53:33.959Z,79.25
2023-03-22T03:54:36.521Z,79.13
2023-03-22T03:55:38.102Z,79.02
2023-03-22T03:56:40.599Z,79.14
2023-03-22T03:57:53.510Z,79.09
2023-03-22T03:58:56.477Z,79.23
2023-03-22T03:59:58.037Z,79.38
2023-03-22T04:01:00.637Z,79.42
2023-03-22T04:02:03.283Z,79.38
2023-03-22T04:03:06.223Z,79.43
2023-03-22T04:04:09.473Z,79.39
2023-03-22T04:05:11.928Z,79.54
2023-03-22T04:06:15.778Z,79.39
2023-03-22T04:07:17.562Z,79.48
2023-03-22T04:08:20.087Z,79.50
2023-03-22T04:09:21.647Z,79.62
2023-03-22T04:10:24.221Z,79.51
2023-03-22T04:11:26.578Z,79.87
2023-03-22T04:12:29.085Z,79.67
2023-03-22T04:13:32.068Z,79.62
2023-03-22T04:14:34.539Z,79.66
2023-03-22T04:15:36.075Z,79.76
2023-03-22T04:16:38.782Z,79.75
2023-03-22T04:17:43.186Z,79.95
2023-03-22T04:18:53.145Z,79.68
2023-03-22T04:19:58.390Z,79.79
2023-03-22T04:21:00.905Z,79.65
2023-03-22T04:22:02.590Z,79.50
2023-03-22T04:23:05.146Z,79.70
2023-03-22T04:24:07.533Z,79.85
2023-03-22T04:25:13.370Z,79.74
2023-03-22T04:26:15.258Z,79.67
2023-03-22T04:27:18.141Z,79.79
2023-03-22T04:28:20.220Z,79.84
2023-03-22T04:29:24.415Z,79.91
2023-03-22T04:30:27.330Z,79.77
2023-03-22T04:31:29.332Z,79.75
2023-03-22T04:32:31.887Z,79.87
2023-03-22T04:33:39.153Z,79.93
2023-03-22T04:34:41.650Z,79.82
2023-03-22T04:35:56.649Z,80.00
2023-03-22T04:37:02.256Z,80.22
2023-03-22T04:38:04.786Z,79.96
2023-03-22T04:39:08.651Z,80.12
2023-03-22T04:40:16.494Z,80.04
2023-03-22T04:41:18.840Z,79.80
2023-03-22T04:42:21.959Z,80.04
2023-03-22T04:43:34.838Z,80.00
2023-03-22T04:44:38.817Z,79.98
2023-03-22T04:45:41.948Z,79.87
2023-03-22T04:46:44.766Z,79.91
2023-03-22T04:47:56.379Z,79.95
2023-03-22T04:48:59.613Z,79.83
2023-03-22T04:50:01.159Z,80.05
2023-03-22T04:51:04.014Z,79.95
2023-03-22T04:52:05.581Z,79.75
2023-03-22T04:53:09.691Z,79.84
2023-03-22T04:54:11.367Z,79.99
2023-03-22T04:55:14.195Z,79.88
2023-03-22T04:56:15.697Z,79.93
2023-03-22T04:57:18.200Z,79.79
2023-03-22T04:58:22.017Z,79.82
2023-03-22T04:59:24.544Z,79.75
2023-03-22T05:00:30.101Z,79.86
2023-03-22T05:01:34.702Z,79.64
2023-03-22T05:02:41.092Z,79.83
2023-03-22T05:03:45.427Z,79.56
2023-03-22T05:04:53.005Z,79.48
2023-03-22T05:05:57.182Z,79.34
2023-03-22T05:07:08.745Z,79.55
2023-03-22T05:08:14.243Z,79.67
2023-03-22T05:09:16.049Z,79.46
2023-03-22T05:10:18.639Z,79.39
2023-03-22T05:11:20.316Z,79.43
2023-03-22T05:12:32.991Z,79.49
2023-03-22T05:13:44.857Z,79.49
2023-03-22T05:14:57.513Z,79.30
2023-03-22T05:16:00.668Z,79.35
2023-03-22T05:17:09.651Z,78.98
2023-03-22T05:18:24.539Z,79.13
2023-03-22T05:19:27.519Z,79.31
2023-03-22T05:20:32.658Z,79.22
2023-03-22T05:21:36.723Z,79.28
2023-03-22T05:22:40.300Z,79.07
2023-03-22T05:23:43.319Z,78.66
2023-03-22T05:24:45.454Z,79.12
2023-03-22T05:25:58.634Z,79.17
2023-03-22T05:27:00.976Z,78.87
2023-03-22T05:28:03.555Z,78.84
2023-03-22T05:29:05.528Z,79.04
2023-03-22T05:30:09.833Z,78.90
2023-03-22T05:31:14.510Z,78.76
2023-03-22T05:32:18.259Z,78.60
2023-03-22T05:33:21.723Z,78.90
2023-03-22T05:34:24.607Z,78.90
2023-03-22T05:35:26.613Z,78.79
2023-03-22T05:36:29.685Z,78.79
2023-03-22T05:37:31.916Z,78.49
2023-03-22T05:38:44.813Z,78.66
2023-03-22T05:39:46.385Z,78.54
2023-03-22T05:40:49.236Z,78.24
2023-03-22T05:41:50.844Z,78.16
2023-03-22T05:42:54.092Z,78.44
2023-03-22T05:43:55.772Z,78.31
2023-03-22T05:44:58.241Z,78.27
2023-03-22T05:46:01.088Z,78.28
2023-03-22T05:47:14.972Z,78.20
2023-03-22T05:48:16.758Z,78.31
2023-03-22T05:49:19.428Z,78.48
2023-03-22T05:50:23.139Z,78.23
2023-03-22T05:51:25.809Z,78.07
2023-03-22T05:52:27.529Z,78.20
2023-03-22T05:53:31.782Z,78.21
2023-03-22T05:54:33.473Z,78.04
2023-03-22T05:55:36.005Z,78.16
2023-03-22T05:56:39.707Z,77.85
2023-03-22T05:57:42.386Z,78.01
2023-03-22T05:58:44.805Z,77.94
2023-03-22T05:59:47.334Z,77.55
2023-03-22T06:00:49.865Z,77.79
2023-03-22T06:01:52.690Z,77.64
2023-03-22T06:02:56.379Z,77.82
2023-03-22T06:03:58.923Z,77.50
2023-03-22T06:05:00.506Z,77.57
2023-03-22T06:06:06.610Z,77.56
2023-03-22T06:07:08.361Z,77.63
2023-03-22T06:08:10.906Z,77.64
2023-03-22T06:09:17.623Z,77.63
2023-03-22T06:10:20.683Z,77.52
2023-03-22T06:11:22.763Z,77.38
2023-03-22T06:12:27.238Z,77.34
2023-03-22T06:13:30.374Z,77.58
2023-03-22T06:14:32.961Z,77.40
2023-03-22T06:15:34.574Z,77.46
2023-03-22T06:16:37.098Z,77.33
2023-03-22T06:17:38.778Z,77.47
2023-03-22T06:18:52.226Z,77.28
2023-03-22T06:20:09.187Z,77.40
2023-03-22T06:21:11.824Z,77.21
2023-03-22T06:22:13.905Z,77.28
2023-03-22T06:23:17.749Z,77.36
2023-03-22T06:24:19.607Z,77.40
2023-03-22T06:25:22.361Z,77.33
2023-03-22T06:26:23.947Z,77.59
2023-03-22T06:27:26.578Z,77.43
2023-03-22T06:28:29.800Z,77.50
2023-03-22T06:29:32.781Z,77.40
2023-03-22T06:30:34.408Z,77.36
2023-03-22T06:31:37.034Z,77.31
2023-03-22T06:32:38.800Z,77.57
2023-03-22T06:33:41.499Z,77.47
2023-03-22T06:34:51.196Z,77.42
2023-03-22T06:35:53.942Z,77.37
2023-03-22T06:36:56.167Z,77.54
2023-03-22T06:37:58.815Z,77.43
2023-03-22T06:39:00.971Z,77.62
2023-03-22T06:40:03.766Z,77.42
2023-03-22T06:41:07.414Z,77.39
2023-03-22T06:42:09.436Z,77.18
2023-03-22T06:43:11.934Z,77.30
2023-03-22T06:44:14.543Z,77.22
2023-03-22T06:45:17.606Z,77.04
2023-03-22T06:46:19.204Z,77.13
2023-03-22T06:47:22.127Z,77.07
2023-03-22T06:48:23.820Z,77.13
2023-03-22T06:49:26.455Z,76.92
2023-03-22T06:50:44.057Z,77.18
2023-03-22T06:51:45.968Z,76.93
2023-03-22T06:52:48.466Z,76.83
2023-03-22T06:53:50.135Z,76.80
2023-03-22T06:54:52.705Z,76.81
2023-03-22T06:56:02.142Z,76.70
2023-03-22T06:57:05.397Z,76.82
2023-03-22T06:58:07.798Z,76.52
2023-03-22T06:59:10.439Z,76.69
2023-03-22T07:00:13.608Z,76.38
2023-03-22T07:01:19.927Z,76.58
2023-03-22T07:02:21.550Z,76.29
2023-03-22T07:03:24.203Z,76.29
2023-03-22T07:04:27.688Z,76.29
2023-03-22T07:05:32.252Z,76.22
2023-03-22T07:06:35.135Z,75.96
2023-03-22T07:07:37.647Z,75.92
2023-03-22T07:08:44.450Z,75.93
2023-03-22T07:09:56.967Z,75.96
2023-03-22T07:11:01.022Z,75.75
2023-03-22T07:12:06.951Z,75.85
2023-03-22T07:13:08.929Z,75.53
2023-03-22T07:14:11.565Z,75.44
2023-03-22T07:15:13.149Z,75.50
2023-03-22T07:16:18.109Z,75.06
2023-03-22T07:17:21.007Z,75.13
2023-03-22T07:18:23.816Z,74.99
2023-03-22T07:19:25.997Z,74.87
2023-03-22T07:20:41.303Z,74.92
2023-03-22T07:21:44.359Z,74.65
2023-03-22T07:22:46.916Z,74.46
2023-03-22T07:23:48.449Z,74.53
2023-03-22T07:24:57.215Z,74.50
2023-03-22T07:26:00.967Z,74.62
2023-03-22T07:27:03.883Z,74.07
2023-03-22T07:28:06.884Z,74.03
2023-03-22T07:29:09.855Z,74.18
2023-03-22T07:30:12.265Z,73.57
2023-03-22T07:31:16.053Z,73.36
2023-03-22T07:32:18.684Z,73.45
2023-03-22T07:33:20.269Z,73.26
2023-03-22T07:34:23.188Z,73.08
2023-03-22T07:35:26.862Z,72.94
2023-03-22T07:36:29.722Z,73.04
2023-03-22T07:37:33.639Z,72.60
2023-03-22T07:38:35.604Z,72.62
2023-03-22T07:39:38.349Z,72.25
2023-03-22T07:40:40.220Z,72.00
2023-03-22T07:41:42.838Z,71.92
2023-03-22T07:42:44.467Z,71.82
2023-03-22T07:44:07.881Z,72.00
2023-03-22T07:45:26.176Z,71.83
2023-03-22T07:46:42.611Z,71.89
2023-03-22T07:47:44.862Z,71.54
2023-03-22T07:48:47.439Z,71.51
2023-03-22T07:49:50.109Z,71.33
2023-03-22T07:50:55.767Z,71.38
2023-03-22T07:51:58.642Z,71.38
2023-03-22T07:53:01.663Z,71.10
2023-03-22T07:54:07.067Z,71.20
2023-03-22T07:55:10.905Z,71.41
2023-03-22T07:56:14.892Z,71.06
2023-03-22T07:57:17.486Z,70.85
2023-03-22T07:58:19.199Z,71.09
2023-03-22T07:59:22.564Z,70.96
2023-03-22T08:00:25.622Z,70.85
2023-03-22T08:01:30.535Z,70.81
2023-03-22T08:02:45.940Z,71.01
2023-03-22T08:03:50.752Z,70.60
2023-03-22T08:04:56.160Z,70.78
2023-03-22T08:06:03.004Z,70.73
2023-03-22T08:07:05.748Z,70.53
2023-03-22T08:08:19.615Z,70.24
2023-03-22T08:09:21.364Z,70.06
2023-03-22T08:10:23.970Z,69.72
2023-03-22T08:11:26.590Z,69.87
2023-03-22T08:12:28.140Z,69.66
2023-03-22T08:13:30.936Z,69.54
2023-03-22T08:14:36.539Z,69.12
2023-03-22T08:15:40.026Z,69.27
2023-03-22T08:16:44.001Z,69.04
2023-03-22T08:17:46.580Z,68.65
2023-03-22T08:18:49.130Z,68.68
2023-03-22T08:19:51.528Z,68.61
2023-03-22T08:20:54.758Z,68.50
2023-03-22T08:21:56.335Z,68.24
2023-03-22T08:22:58.873Z,68.19
2023-03-22T08:24:02.984Z,67.92
2023-03-22T08:25:05.386Z,67.57
2023-03-22T08:26:08.009Z,67.94
2023-03-22T08:27:20.831Z,67.47
2023-03-22T08:28:22.781Z,67.66
2023-03-22T08:29:25.565Z,67.24
2023-03-22T08:30:38.242Z,67.23
2023-03-22T08:31:51.754Z,67.15
2023-03-22T08:32:53.331Z,66.81
2023-03-22T08:33:56.555Z,66.72
2023-03-22T08:34:58.207Z,66.38
2023-03-22T08:36:07.949Z,66.54
2023-03-22T08:37:11.961Z,66.60
2023-03-22T08:38:14.666Z,66.39
2023-03-22T08:39:18.665Z,66.31
2023-03-22T08:40:20.338Z,66.21
2023-03-22T08:41:23.551Z,66.24
2023-03-22T08:42:25.378Z,66.15
2023-03-22T08:43:28.156Z,65.97
2023-03-22T08:44:30.295Z,65.87
2023-03-22T08:45:32.886Z,65.83
2023-03-22T08:46:35.765Z,65.86
2023-03-22T08:47:38.343Z,65.74
2023-03-22T08:48:51.363Z,65.76
2023-03-22T08:49:53.181Z,65.59
2023-03-22T08:50:55.982Z,65.59
2023-03-22T08:51:57.612Z,65.22
2023-03-22T08:53:00.871Z,65.21
2023-03-22T08:54:08.025Z,65.44
2023-03-22T08:55:11.237Z,64.94
2023-03-22T08:56:14.866Z,64.87
2023-03-22T08:57:16.906Z,64.86
2023-03-22T08:58:20.549Z,64.35
2023-03-22T08:59:23.822Z,64.19
2023-03-22T09:00:27.607Z,64.12
2023-03-22T09:01:35.233Z,64.12
2023-03-22T09:02:37.437Z,63.94
2023-03-22T09:03:40.390Z,63.92
2023-03-22T09:04:42.266Z,63.56
2023-03-22T09:05:45.165Z,63.39
2023-03-22T09:06:46.980Z,63.51
2023-03-22T09:08:06.098Z,63.32
2023-03-22T09:09:09.019Z,63.02
2023-03-22T09:10:13.061Z,62.80
2023-03-22T09:11:24.521Z,62.58
2023-03-22T09:12:26.228Z,62.23
2023-03-22T09:13:30.534Z,62.14
2023-03-22T09:14:32.092Z,62.02
2023-03-22T09:15:34.631Z,61.77
2023-03-22T09:16:41.808Z,61.65
2023-03-22T09:17:44.676Z,61.48
2023-03-22T09:18:46.481Z,61.18
2023-03-22T09:20:02.722Z,60.91
2023-03-22T09:21:13.099Z,61.04
2023-03-22T09:22:14.771Z,60.91
2023-03-22T09:23:17.791Z,60.71
2023-03-22T09:24:20.379Z,60.52
2023-03-22T09:25:24.287Z,60.48
2023-03-22T09:26:27.062Z,60.35
2023-03-22T09:27:34.208Z,60.11
2023-03-22T09:28:36.563Z,60.17
2023-03-22T09:29:39.577Z,59.80
2023-03-22T09:30:44.893Z,59.99
2023-03-22T09:31:48.931Z,59.76
2023-03-22T09:32:53.121Z,59.88
2023-03-22T09:33:55.240Z,59.83
2023-03-22T09:34:57.758Z,59.53
2023-03-22T09:35:59.596Z,59.49
2023-03-22T09:37:04.056Z,59.56
2023-03-22T09:38:06.497Z,59.37
2023-03-22T09:39:10.023Z,59.33
2023-03-22T09:40:12.744Z,59.40
2023-03-22T09:41:22.026Z,59.37
2023-03-22T09:42:32.172Z,59.42
2023-03-22T09:43:37.832Z,59.69
2023-03-22T09:44:43.991Z,59.34
2023-03-22T09:45:54.240Z,59.52
2023-03-22T09:46:59.945Z,59.26
2023-03-22T09:48:06.976Z,59.24
2023-03-22T09:49:15.037Z,59.15
2023-03-22T09:50:21.816Z,59.17
2023-03-22T09:51:37.519Z,59.07
2023-03-22T09:52:40.709Z,59.30
2023-03-22T09:53:42.286Z,58.78
2023-03-22T09:54:47.562Z,58.67
2023-03-22T09:55:56.854Z,58.47
2023-03-22T09:57:06.783Z,58.54
2023-03-22T09:58:21.869Z,58.38
2023-03-22T09:59:32.548Z,58.40
2023-03-22T10:00:43.275Z,57.84
2023-03-22T10:01:52.522Z,57.93
2023-03-22T10:03:01.586Z,57.81
2023-03-22T10:04:26.140Z,57.58
2023-03-22T10:05:35.420Z,57.51
2023-03-22T10:06:38.482Z,57.45
2023-03-22T10:07:52.401Z,57.30
2023-03-22T10:09:06.107Z,57.44
2023-03-22T10:10:12.822Z,57.40
2023-03-22T10:11:23.927Z,57.38
2023-03-22T10:12:31.339Z,57.17
2023-03-22T10:13:41.940Z,56.67
2023-03-22T10:14:51.579Z,57.00
2023-03-22T10:16:08.310Z,56.74
2023-03-22T10:17:16.686Z,56.80
2023-03-22T10:18:23.246Z,56.74
2023-03-22T10:19:31.813Z,56.47
2023-03-22T10:20:41.262Z,56.53
2023-03-22T10:21:47.654Z,55.91
2023-03-22T10:22:53.957Z,55.90
2023-03-22T10:24:02.084Z,56.10
2023-03-22T10:25:11.173Z,55.85
2023-03-22T10:26:21.405Z,55.69
2023-03-22T10:27:31.014Z,55.55
2023-03-22T10:28:40.266Z,55.66
2023-03-22T10:29:47.913Z,55.18
2023-03-22T10:30:57.384Z,55.38
2023-03-22T10:32:13.653Z,55.21
2023-03-22T10:33:24.691Z,55.18
2023-03-22T10:34:31.184Z,55.06
2023-03-22T10:35:36.277Z,55.21
2023-03-22T10:36:47.421Z,55.22
2023-03-22T10:37:54.227Z,55.24
2023-03-22T10:39:04.245Z,55.52
2023-03-22T10:40:15.003Z,55.27
2023-03-22T10:41:25.060Z,55.34
2023-03-22T10:42:42.065Z,55.37
2023-03-22T10:43:47.263Z,55.62
2023-03-22T10:44:53.099Z,55.61
2023-03-22T10:45:57.020Z,55.46
2023-03-22T10:47:07.831Z,55.46
2023-03-22T10:48:18.025Z,55.40
2023-03-22T10:49:27.642Z,55.43
2023-03-22T10:50:33.469Z,55.63
2023-03-22T10:51:40.341Z,55.69
2023-03-22T10:52:50.715Z,55.82
2023-03-22T10:53:54.825Z,55.25
2023-03-22T10:55:02.285Z,55.67
2023-03-22T10:56:18.706Z,55.57
2023-03-22T10:57:20.304Z,55.54
2023-03-22T10:58:31.139Z,55.41
2023-03-22T10:59:44.585Z,55.51
2023-03-22T11:00:49.130Z,55.56
2023-03-22T11:01:55.573Z,55.65
2023-03-22T11:03:00.086Z,55.55
2023-03-22T11:04:09.549Z,55.27
2023-03-22T11:05:20.699Z,55.51
2023-03-22T11:06:26.294Z,55.48
2023-03-22T11:07:31.990Z,55.43
2023-03-22T11:08:46.761Z,55.32
2023-03-22T11:09:48.343Z,55.53
2023-03-22T11:10:52.019Z,55.44
2023-03-22T11:11:57.484Z,55.10
2023-03-22T11:13:18.225Z,54.98
2023-03-22T11:14:27.604Z,55.13
2023-03-22T11:15:32.673Z,55.34
2023-03-22T11:16:48.304Z,55.00
2023-03-22T11:17:50.170Z,54.98
2023-03-22T11:18:53.891Z,55.25
2023-03-22T11:19:59.443Z,55.19
2023-03-22T11:21:07.292Z,55.08
2023-03-22T11:22:24.514Z,55.03
2023-03-22T11:23:28.467Z,54.81
2023-03-22T11:24:33.039Z,55.10
2023-03-22T11:25:38.170Z,55.24
2023-03-22T11:26:41.883Z,54.83
2023-03-22T11:27:51.071Z,54.97
2023-03-22T11:29:03.166Z,55.33
2023-03-22T11:30:20.978Z,55.49
2023-03-22T11:31:50.073Z,55.25
2023-03-22T11:33:02.023Z,55.36
2023-03-22T11:34:04.681Z,55.28
2023-03-22T11:35:14.676Z,55.36
2023-03-22T11:36:18.473Z,55.17
2023-03-22T11:37:22.956Z,55.19
2023-03-22T11:38:29.618Z,55.18
2023-03-22T11:39:32.584Z,55.05
2023-03-22T11:40:36.059Z,55.11
2023-03-22T11:41:41.292Z,55.05
2023-03-22T11:42:43.131Z,55.04
2023-03-22T11:43:49.723Z,55.05
2023-03-22T11:44:52.871Z,54.98
2023-03-22T11:45:58.745Z,54.89
2023-03-22T11:47:02.643Z,54.75
2023-03-22T11:48:18.726Z,54.77
2023-03-22T11:49:26.885Z,54.64
2023-03-22T11:50:31.976Z,54.51
2023-03-22T11:51:36.944Z,54.67
2023-03-22T11:52:39.642Z,54.76
2023-03-22T11:53:43.915Z,54.46
2023-03-22T11:54:47.274Z,54.40
2023-03-22T11:55:51.317Z,54.42
2023-03-22T11:56:57.882Z,54.39
2023-03-22T11:58:00.541Z,54.36
2023-03-22T11:59:07.256Z,54.57
2023-03-22T12:00:19.953Z,54.31
2023-03-22T12:01:41.718Z,54.21
2023-03-22T12:02:49.650Z,54.20
2023-03-22T12:04:04.838Z,54.25
2023-03-22T12:05:13.023Z,53.97
2023-03-22T12:06:28.555Z,54.08
2023-03-22T12:07:33.906Z,53.99
2023-03-22T12:08:43.880Z,53.69
2023-03-22T12:09:53.320Z,53.99
2023-03-22T12:11:02.610Z,53.54
2023-03-22T12:12:10.833Z,53.91
2023-03-22T12:13:17.256Z,53.70
2023-03-22T12:14:24.553Z,53.28
2023-03-22T12:15:30.303Z,53.53
2023-03-22T12:16:41.060Z,53.56
2023-03-22T12:17:54.891Z,53.43
2023-03-22T12:19:06.950Z,53.13
2023-03-22T12:20:19.345Z,53.08
2023-03-22T12:21:21.111Z,53.33
2023-03-22T12:22:30.725Z,53.43
2023-03-22T12:23:35.868Z,53.31
2023-03-22T12:24:37.951Z,53.30
2023-03-22T12:25:43.192Z,53.41
2023-03-22T12:26:45.689Z,53.76
2023-03-22T12:27:52.557Z,53.88
2023-03-22T12:29:08.148Z,53.70
2023-03-22T12:30:17.195Z,54.07
2023-03-22T12:31:22.619Z,53.84
2023-03-22T12:32:30.376Z,53.90
2023-03-22T12:33:38.307Z,54.08
2023-03-22T12:34:44.772Z,54.13
2023-03-22T12:35:49.595Z,54.15
2023-03-22T12:36:54.702Z,54.04
2023-03-22T12:38:00.559Z,54.25
2023-03-22T12:39:05.093Z,54.17
2023-03-22T12:40:16.680Z,54.39
2023-03-22T12:41:27.326Z,54.12
2023-03-22T12:42:35.029Z,54.28
2023-03-22T12:43:47.838Z,54.58
2023-03-22T12:45:02.535Z,54.63
2023-03-22T12:46:11.127Z,54.59
2023-03-22T12:47:29.598Z,54.64
2023-03-22T12:48:36.959Z,54.65
2023-03-22T12:49:44.455Z,54.86
2023-03-22T12:50:51.230Z,54.78
2023-03-22T12:51:56.519Z,55.05
2023-03-22T12:52:59.353Z,54.82
2023-03-22T12:54:02.149Z,54.97
2023-03-22T12:55:06.480Z,54.76
2023-03-22T12:56:11.959Z,54.89
2023-03-22T12:57:16.611Z,55.24
2023-03-22T12:58:22.245Z,55.17
2023-03-22T12:59:28.657Z,55.26
2023-03-22T13:00:39.407Z,55.52
2023-03-22T13:01:58.407Z,55.19
2023-03-22T13:03:10.716Z,55.06
2023-03-22T13:04:31.192Z,55.29
2023-03-22T13:05:36.154Z,55.39
2023-03-22T13:06:57.449Z,55.41
2023-03-22T13:08:10.239Z,55.39
2023-03-22T13:09:16.925Z,55.48
2023-03-22T13:11:09.921Z,55.26
2023-03-22T13:12:31.614Z,55.38
2023-03-22T13:13:41.728Z,55.38
2023-03-22T13:15:01.062Z,55.61
2023-03-22T13:16:15.179Z,55.78
2023-03-22T13:17:36.418Z,55.74
2023-03-22T13:19:17.421Z,55.84
2023-03-22T13:20:28.109Z,55.86
2023-03-22T13:21:33.298Z,55.98
2023-03-22T13:23:02.124Z,56.24
2023-03-22T13:24:22.521Z,56.27
2023-03-22T13:25:36.131Z,56.18
2023-03-22T13:26:45.456Z,56.42
2023-03-22T13:27:53.865Z,56.23
2023-03-22T13:28:59.123Z,56.23
2023-03-22T13:30:16.884Z,56.31
2023-03-22T13:31:34.401Z,56.65
2023-03-22T13:32:37.457Z,56.69
2023-03-22T13:33:40.126Z,56.46
2023-03-22T13:34:46.799Z,56.40
2023-03-22T13:35:53.812Z,56.50
2023-03-22T13:36:57.792Z,56.75
2023-03-22T13:38:02.880Z,56.55
2023-03-22T13:39:12.330Z,56.72
2023-03-22T13:40:22.894Z,56.83
2023-03-22T13:41:29.273Z,56.71
2023-03-22T13:42:37.247Z,56.65
2023-03-22T13:43:47.542Z,56.54
2023-03-22T13:44:57.078Z,56.63
2023-03-22T13:46:08.097Z,56.76
2023-03-22T13:47:32.237Z,56.71
2023-03-22T13:48:43.799Z,56.69
2023-03-22T13:49:54.133Z,56.71
2023-03-22T13:50:58.166Z,56.69
2023-03-22T13:52:02.990Z,56.77
2023-03-22T13:53:08.536Z,56.52
2023-03-22T13:54:20.046Z,56.79
2023-03-22T13:56:03.475Z,56.50
2023-03-22T13:57:17.382Z,56.82
2023-03-22T13:58:36.137Z,56.77
2023-03-22T14:00:11.224Z,56.62
2023-03-22T14:01:23.096Z,56.86
2023-03-22T14:02:28.320Z,56.84
2023-03-22T14:03:35.882Z,56.97
2023-03-22T14:04:43.103Z,57.23
2023-03-22T14:05:48.313Z,57.01
2023-03-22T14:06:55.122Z,57.17
2023-03-22T14:08:00.825Z,57.08
2023-03-22T14:09:10.405Z,57.11
2023-03-22T14:10:16.342Z,57.28
2023-03-22T14:11:24.695Z,57.14
2023-03-22T14:12:32.187Z,57.20
2023-03-22T14:13:40.514Z,57.00
2023-03-22T14:14:49.724Z,57.21
2023-03-22T14:15:54.243Z,57.16
2023-03-22T14:17:04.782Z,57.00
2023-03-22T14:18:14.041Z,56.92
2023-03-22T14:19:20.273Z,56.99
2023-03-22T14:20:24.542Z,57.09
2023-03-22T14:21:34.468Z,57.17
